Time;durP1;ratioP1;P1;durP2;ratioP2;P2;SDS_P1;SDS_P2;PMS_P1;PMS_P2;Temp;Humidity;BMP_temperature;BMP_pressure;BME280_temperature;BME280_humidity;BME280_pressure;Samples;Min_cycle;Max_cycle;Signal;HPM_P1;HPM_P2
2022/03/14 00:01:54;;;;;;;54.90;29.42;;;;;;;;;;770194;180;919137;-62
2022/03/14 00:04:19;;;;;;;52.77;30.90;;;;;;;;;;764864;182;919129;-63
2022/03/14 00:06:48;;;;;;;52.07;29.50;;;;;;;;;;770321;179;1021857;-62
2022/03/14 00:09:14;;;;;;;53.40;32.83;;;;;;;;;;777721;180;919543;-62
2022/03/14 00:11:40;;;;;;;50.35;29.65;;;;;;;;;;785894;178;1007989;-60
2022/03/14 00:14:08;;;;;;;51.63;30.27;;;;;;;;;;779433;179;921099;-61
2022/03/14 00:16:36;;;;;;;46.03;29.50;;;;;;;;;;774135;177;919301;-60
2022/03/14 00:18:58;;;;;;;47.57;27.67;;;;;;;;;;778820;178;919908;-62
2022/03/14 00:21:23;;;;;;;39.90;25.10;;;;;;;;;;775541;179;920137;-61
2022/03/14 00:23:49;;;;;;;48.28;27.08;;;;;;;;;;775328;177;918893;-61
2022/03/14 00:26:15;;;;;;;42.70;26.53;;;;;;;;;;775309;177;919480;-60
2022/03/14 00:28:42;;;;;;;42.08;25.88;;;;;;;;;;770262;180;919714;-62
2022/03/14 00:31:06;;;;;;;44.27;26.73;;;;;;;;;;772135;180;1017780;-62
2022/03/14 00:33:33;;;;;;;50.83;29.80;;;;;;;;;;777007;179;1022716;-61
2022/03/14 00:35:58;;;;;;;42.47;27.20;;;;;;;;;;778941;179;1225189;-60
2022/03/14 00:38:25;;;;;;;43.30;27.03;;;;;;;;;;776631;178;920164;-62
2022/03/14 00:40:51;;;;;;;37.33;24.10;;;;;;;;;;779156;180;920491;-62
2022/03/14 00:43:16;;;;;;;40.20;25.67;;;;;;;;;;772059;181;919325;-62
2022/03/14 00:45:42;;;;;;;45.87;29.00;;;;;;;;;;769177;182;918186;-61
2022/03/14 00:48:08;;;;;;;45.50;27.50;;;;;;;;;;772293;178;919310;-60
2022/03/14 00:50:34;;;;;;;48.67;28.33;;;;;;;;;;783282;178;918690;-61
2022/03/14 00:52:59;;;;;;;36.60;25.30;;;;;;;;;;774443;179;618849;-61
2022/03/14 00:55:25;;;;;;;44.70;26.13;;;;;;;;;;776795;180;634852;-61
2022/03/14 00:57:51;;;;;;;43.93;27.03;;;;;;;;;;774817;181;632873;-60
2022/03/14 01:00:17;;;;;;;41.93;25.73;;;;;;;;;;765175;182;919375;-62
2022/03/14 01:02:43;;;;;;;42.10;24.77;;;;;;;;;;774388;179;919471;-62
2022/03/14 01:05:09;;;;;;;42.10;27.02;;;;;;;;;;778281;179;920090;-61
2022/03/14 01:07:35;;;;;;;36.77;24.40;;;;;;;;;;781116;178;919848;-60
2022/03/14 01:10:00;;;;;;;43.63;26.30;;;;;;;;;;777899;179;918315;-61
2022/03/14 01:12:27;;;;;;;42.03;25.27;;;;;;;;;;777529;179;1021472;-61
2022/03/14 01:14:53;;;;;;;43.13;25.60;;;;;;;;;;783203;180;919627;-61
2022/03/14 01:17:19;;;;;;;34.33;23.50;;;;;;;;;;777696;179;919826;-60
2022/03/14 01:19:45;;;;;;;38.20;25.70;;;;;;;;;;777982;179;920028;-60
2022/03/14 01:22:11;;;;;;;43.10;25.40;;;;;;;;;;783749;179;919909;-60
2022/03/14 01:24:38;;;;;;;40.77;24.00;;;;;;;;;;774068;180;919512;-62
2022/03/14 01:27:03;;;;;;;44.90;25.13;;;;;;;;;;776992;179;919578;-61
2022/03/14 01:29:28;;;;;;;39.67;24.40;;;;;;;;;;777667;177;919499;-61
2022/03/14 01:31:54;;;;;;;41.00;25.90;;;;;;;;;;778938;180;916222;-61
2022/03/14 01:34:20;;;;;;;35.93;23.87;;;;;;;;;;766402;182;915879;-61
2022/03/14 01:36:46;;;;;;;36.37;23.90;;;;;;;;;;766263;180;919659;-62
2022/03/14 01:39:12;;;;;;;36.90;22.37;;;;;;;;;;771972;179;916078;-61
2022/03/14 01:41:37;;;;;;;38.30;23.43;;;;;;;;;;766561;179;915349;-64
2022/03/14 01:44:04;;;;;;;37.43;23.10;;;;;;;;;;776081;177;944220;-62
2022/03/14 01:46:30;;;;;;;35.53;22.80;;;;;;;;;;774943;178;916166;-64
2022/03/14 01:48:57;;;;;;;38.00;23.40;;;;;;;;;;772224;177;914380;-62
2022/03/14 01:51:23;;;;;;;38.87;25.30;;;;;;;;;;773861;178;915809;-63
2022/03/14 01:53:48;;;;;;;40.80;22.25;;;;;;;;;;772079;178;922890;-61
2022/03/14 01:56:14;;;;;;;38.83;23.73;;;;;;;;;;771728;178;915887;-62
2022/03/14 01:58:40;;;;;;;36.78;22.27;;;;;;;;;;776395;177;920804;-62
2022/03/14 02:01:06;;;;;;;35.43;22.53;;;;;;;;;;776262;177;920864;-62
2022/03/14 02:03:32;;;;;;;33.60;20.07;;;;;;;;;;777080;180;918851;-61
2022/03/14 02:05:58;;;;;;;36.70;21.83;;;;;;;;;;773289;180;919648;-61
2022/03/14 02:08:23;;;;;;;29.63;19.53;;;;;;;;;;766954;180;917433;-60
2022/03/14 02:10:49;;;;;;;33.42;21.00;;;;;;;;;;769877;182;918787;-62
2022/03/14 02:13:15;;;;;;;31.37;19.97;;;;;;;;;;777069;179;920393;-62
2022/03/14 02:15:41;;;;;;;32.20;21.60;;;;;;;;;;780174;179;918940;-61
2022/03/14 02:18:07;;;;;;;36.80;19.65;;;;;;;;;;780053;179;918222;-62
2022/03/14 02:20:33;;;;;;;31.17;20.43;;;;;;;;;;758484;180;4661923;-61
2022/03/14 02:22:59;;;;;;;29.57;20.10;;;;;;;;;;772459;179;936938;-60
2022/03/14 02:25:25;;;;;;;38.78;22.73;;;;;;;;;;771671;180;938627;-62
2022/03/14 02:27:51;;;;;;;32.80;21.00;;;;;;;;;;780524;180;918711;-64
2022/03/14 02:30:17;;;;;;;30.50;18.67;;;;;;;;;;776647;178;921815;-61
2022/03/14 02:32:44;;;;;;;32.23;18.87;;;;;;;;;;771053;178;1021620;-61
2022/03/14 02:35:09;;;;;;;33.70;20.40;;;;;;;;;;772205;182;917785;-62
2022/03/14 02:37:35;;;;;;;30.80;18.43;;;;;;;;;;766635;180;921239;-60
2022/03/14 02:40:01;;;;;;;27.70;19.07;;;;;;;;;;766979;182;918384;-62
2022/03/14 02:42:28;;;;;;;31.42;19.05;;;;;;;;;;767605;179;914668;-61
2022/03/14 02:44:53;;;;;;;28.10;19.23;;;;;;;;;;775451;177;917339;-59
2022/03/14 02:47:20;;;;;;;27.35;17.55;;;;;;;;;;774050;178;1020996;-59
2022/03/14 02:49:45;;;;;;;24.33;16.30;;;;;;;;;;775131;177;918534;-59
2022/03/14 02:52:12;;;;;;;27.73;17.17;;;;;;;;;;782626;179;918098;-59
2022/03/14 02:54:38;;;;;;;23.55;16.12;;;;;;;;;;772113;180;918394;-61
2022/03/14 02:57:05;;;;;;;24.87;15.25;;;;;;;;;;769373;180;1111335;-61
2022/03/14 02:59:30;;;;;;;25.63;14.60;;;;;;;;;;770123;182;919447;-60
2022/03/14 03:01:56;;;;;;;21.07;13.63;;;;;;;;;;764413;180;918284;-61
2022/03/14 03:04:22;;;;;;;25.97;13.97;;;;;;;;;;764261;183;920230;-62
2022/03/14 03:06:48;;;;;;;25.33;15.65;;;;;;;;;;774515;177;920366;-60
2022/03/14 03:09:14;;;;;;;23.47;14.70;;;;;;;;;;775671;179;920833;-60
2022/03/14 03:11:40;;;;;;;27.20;14.93;;;;;;;;;;774296;177;917659;-61
2022/03/14 03:14:06;;;;;;;22.93;13.20;;;;;;;;;;776513;179;915545;-61
2022/03/14 03:16:32;;;;;;;27.40;13.90;;;;;;;;;;783257;177;919168;-62
2022/03/14 03:18:58;;;;;;;24.40;12.77;;;;;;;;;;777858;179;921725;-61
2022/03/14 03:21:23;;;;;;;26.65;12.57;;;;;;;;;;777622;177;913487;-61
2022/03/14 03:23:49;;;;;;;21.90;12.93;;;;;;;;;;775595;179;918699;-62
2022/03/14 03:26:15;;;;;;;24.47;13.43;;;;;;;;;;772835;180;920154;-61
2022/03/14 03:28:41;;;;;;;26.23;13.23;;;;;;;;;;775483;179;919498;-61
2022/03/14 03:31:08;;;;;;;19.83;11.70;;;;;;;;;;775603;179;914515;-61
2022/03/14 03:33:34;;;;;;;17.97;11.80;;;;;;;;;;780103;179;914393;-60
2022/03/14 03:35:59;;;;;;;19.20;11.10;;;;;;;;;;777148;180;920875;-61
2022/03/14 03:38:25;;;;;;;19.20;11.83;;;;;;;;;;769723;180;920124;-61
2022/03/14 03:40:51;;;;;;;25.67;13.70;;;;;;;;;;780596;179;1021333;-61
2022/03/14 03:43:17;;;;;;;19.27;12.73;;;;;;;;;;777232;180;919537;-61
2022/03/14 03:45:43;;;;;;;21.90;12.90;;;;;;;;;;777306;177;920095;-60
2022/03/14 03:48:09;;;;;;;20.60;12.10;;;;;;;;;;780865;179;918499;-61
2022/03/14 03:50:34;;;;;;;20.23;12.20;;;;;;;;;;775927;179;919523;-61
2022/03/14 03:53:00;;;;;;;17.58;11.27;;;;;;;;;;772654;179;918709;-61
2022/03/14 03:55:26;;;;;;;21.07;12.00;;;;;;;;;;775697;180;919634;-61
2022/03/14 03:57:52;;;;;;;24.90;11.23;;;;;;;;;;773909;177;919450;-62
2022/03/14 04:00:19;;;;;;;23.48;13.05;;;;;;;;;;777316;179;923152;-61
2022/03/14 04:02:44;;;;;;;28.80;13.27;;;;;;;;;;778875;179;919772;-62
2022/03/14 04:05:11;;;;;;;18.90;11.43;;;;;;;;;;775987;179;920417;-61
2022/03/14 04:07:35;;;;;;;27.77;20.55;;;;;;;;;;776197;176;919661;-61
2022/03/14 04:10:01;;;;;;;22.10;14.33;;;;;;;;;;774455;178;1121159;-60
2022/03/14 04:12:27;;;;;;;37.07;21.93;;;;;;;;;;781464;177;918598;-61
2022/03/14 04:14:56;;;;;;;21.05;15.38;;;;;;;;;;775151;179;919048;-61
2022/03/14 04:17:19;;;;;;;22.73;12.43;;;;;;;;;;775409;179;918960;-61
2022/03/14 04:19:48;;;;;;;25.73;14.80;;;;;;;;;;782021;178;918924;-62
2022/03/14 04:22:15;;;;;;;26.30;13.20;;;;;;;;;;766802;181;918798;-61
2022/03/14 04:24:38;;;;;;;21.10;12.03;;;;;;;;;;770616;181;1021201;-62
2022/03/14 04:27:04;;;;;;;19.53;11.80;;;;;;;;;;763702;181;919410;-62
2022/03/14 04:29:30;;;;;;;19.60;10.87;;;;;;;;;;774052;181;919777;-62
2022/03/14 04:31:56;;;;;;;23.30;13.33;;;;;;;;;;769210;179;919395;-62
2022/03/14 04:34:22;;;;;;;20.80;11.67;;;;;;;;;;774133;179;919870;-61
2022/03/14 04:36:50;;;;;;;19.07;10.63;;;;;;;;;;780560;179;919033;-62
2022/03/14 04:39:16;;;;;;;20.50;11.90;;;;;;;;;;775027;179;936108;-61
2022/03/14 04:41:43;;;;;;;19.35;11.10;;;;;;;;;;778845;179;939679;-61
2022/03/14 04:44:08;;;;;;;21.73;12.77;;;;;;;;;;778343;178;919655;-60
2022/03/14 04:46:34;;;;;;;21.90;10.93;;;;;;;;;;774644;179;915942;-63
2022/03/14 04:48:59;;;;;;;18.10;11.50;;;;;;;;;;773770;179;918640;-62
2022/03/14 04:51:25;;;;;;;23.90;11.37;;;;;;;;;;773682;179;636732;-62
2022/03/14 04:53:51;;;;;;;25.97;10.73;;;;;;;;;;785184;179;635954;-61
2022/03/14 04:56:17;;;;;;;25.30;14.67;;;;;;;;;;783384;178;625654;-62
2022/03/14 04:58:43;;;;;;;25.30;14.33;;;;;;;;;;784676;178;621778;-62
2022/03/14 05:01:09;;;;;;;17.30;11.63;;;;;;;;;;788285;179;615076;-61
2022/03/14 05:03:35;;;;;;;23.73;15.33;;;;;;;;;;784430;179;629462;-62
2022/03/14 05:06:00;;;;;;;21.00;12.83;;;;;;;;;;783787;179;640271;-61
2022/03/14 05:08:26;;;;;;;14.80;10.13;;;;;;;;;;784687;179;624939;-62
2022/03/14 05:10:52;;;;;;;20.23;12.90;;;;;;;;;;780313;180;627240;-62
2022/03/14 05:13:18;;;;;;;17.08;11.70;;;;;;;;;;775924;180;819482;-62
2022/03/14 05:15:44;;;;;;;21.90;13.67;;;;;;;;;;765734;182;918197;-62
2022/03/14 05:18:10;;;;;;;21.45;12.93;;;;;;;;;;759951;183;969115;-62
2022/03/14 05:20:37;;;;;;;21.37;11.50;;;;;;;;;;766225;180;918938;-63
2022/03/14 05:23:01;;;;;;;16.23;10.33;;;;;;;;;;774635;179;627185;-64
2022/03/14 05:25:27;;;;;;;22.87;11.00;;;;;;;;;;771948;180;918848;-61
2022/03/14 05:27:53;;;;;;;21.33;12.70;;;;;;;;;;768315;180;918885;-61
2022/03/14 05:30:19;;;;;;;16.17;10.10;;;;;;;;;;773369;181;919161;-62
2022/03/14 05:32:45;;;;;;;17.80;10.83;;;;;;;;;;777376;179;919677;-61
2022/03/14 05:35:11;;;;;;;20.35;11.18;;;;;;;;;;770703;181;920285;-63
2022/03/14 05:37:37;;;;;;;19.37;10.13;;;;;;;;;;776249;180;919676;-63
2022/03/14 05:40:04;;;;;;;17.30;10.27;;;;;;;;;;782828;179;919690;-61
2022/03/14 05:42:29;;;;;;;21.93;11.20;;;;;;;;;;780647;179;897012;-61
2022/03/14 05:44:55;;;;;;;19.35;9.68;;;;;;;;;;775663;180;916672;-63
2022/03/14 05:47:20;;;;;;;20.97;10.90;;;;;;;;;;775091;180;919343;-63
2022/03/14 05:49:46;;;;;;;18.77;12.10;;;;;;;;;;781525;179;992202;-62
2022/03/14 05:52:14;;;;;;;15.43;10.77;;;;;;;;;;776920;180;920610;-61
2022/03/14 05:54:38;;;;;;;17.73;10.68;;;;;;;;;;775062;180;1300645;-62
2022/03/14 05:57:04;;;;;;;19.93;11.73;;;;;;;;;;783100;180;919387;-62
2022/03/14 05:59:30;;;;;;;20.50;10.87;;;;;;;;;;777136;179;918323;-62
2022/03/14 06:01:56;;;;;;;19.53;11.50;;;;;;;;;;776851;180;991650;-62
2022/03/14 06:04:23;;;;;;;18.87;11.50;;;;;;;;;;774887;180;918864;-62
2022/03/14 06:06:47;;;;;;;20.80;12.20;;;;;;;;;;765227;181;919228;-62
2022/03/14 06:09:13;;;;;;;22.90;13.43;;;;;;;;;;773570;179;1025485;-61
2022/03/14 06:11:39;;;;;;;19.33;11.43;;;;;;;;;;778792;179;916632;-61
2022/03/14 06:14:05;;;;;;;23.53;11.60;;;;;;;;;;779411;179;919310;-61
2022/03/14 06:16:31;;;;;;;21.70;12.30;;;;;;;;;;779792;177;919288;-61
2022/03/14 06:18:57;;;;;;;21.07;12.27;;;;;;;;;;778012;179;919359;-63
2022/03/14 06:21:22;;;;;;;21.47;11.53;;;;;;;;;;782515;180;919214;-60
2022/03/14 06:23:48;;;;;;;19.33;11.83;;;;;;;;;;777606;180;919661;-61
2022/03/14 06:26:15;;;;;;;18.92;11.50;;;;;;;;;;775879;179;933314;-61
2022/03/14 06:28:40;;;;;;;20.87;11.83;;;;;;;;;;783554;179;918869;-61
2022/03/14 06:31:06;;;;;;;26.40;11.50;;;;;;;;;;777820;179;919347;-62
2022/03/14 06:33:32;;;;;;;21.27;11.77;;;;;;;;;;778390;179;919761;-61
2022/03/14 06:35:58;;;;;;;25.00;11.93;;;;;;;;;;783748;179;919701;-62
2022/03/14 06:38:24;;;;;;;26.57;12.40;;;;;;;;;;779498;179;920230;-61
2022/03/14 06:40:50;;;;;;;24.67;11.95;;;;;;;;;;777734;179;920630;-62
2022/03/14 06:43:17;;;;;;;20.13;11.67;;;;;;;;;;777901;180;919942;-62
2022/03/14 06:45:41;;;;;;;18.70;11.20;;;;;;;;;;781189;179;912862;-61
2022/03/14 06:48:07;;;;;;;20.53;12.80;;;;;;;;;;773087;178;922638;-63
2022/03/14 06:50:34;;;;;;;25.10;11.40;;;;;;;;;;769709;179;912988;-63
2022/03/14 06:52:59;;;;;;;14.52;10.07;;;;;;;;;;777883;178;920039;-63
2022/03/14 06:55:26;;;;;;;21.97;10.80;;;;;;;;;;778193;179;946220;-63
2022/03/14 06:57:51;;;;;;;18.37;10.90;;;;;;;;;;774452;179;918927;-63
2022/03/14 07:00:17;;;;;;;16.92;10.52;;;;;;;;;;782086;180;918318;-64
2022/03/14 07:02:43;;;;;;;18.33;9.85;;;;;;;;;;773132;180;920303;-64
2022/03/14 07:05:11;;;;;;;20.87;9.90;;;;;;;;;;777576;180;919300;-66
2022/03/14 07:07:37;;;;;;;16.20;8.93;;;;;;;;;;774103;179;992035;-67
2022/03/14 07:10:02;;;;;;;19.10;10.57;;;;;;;;;;781852;178;915360;-67
2022/03/14 07:12:28;;;;;;;14.77;9.03;;;;;;;;;;777413;180;916414;-66
2022/03/14 07:14:54;;;;;;;16.97;9.83;;;;;;;;;;778171;179;919272;-67
2022/03/14 07:17:20;;;;;;;15.97;8.60;;;;;;;;;;781351;178;918462;-68
2022/03/14 07:19:46;;;;;;;17.27;9.17;;;;;;;;;;778659;177;918993;-68
2022/03/14 07:22:17;;;;;;;13.82;9.07;;;;;;;;;;780722;179;922669;-67
2022/03/14 07:24:38;;;;;;;14.87;9.10;;;;;;;;;;784922;179;920107;-66
2022/03/14 07:27:03;;;;;;;21.23;10.17;;;;;;;;;;778928;178;918881;-66
2022/03/14 07:29:29;;;;;;;13.63;9.33;;;;;;;;;;781423;180;634489;-66
2022/03/14 07:31:55;;;;;;;13.00;8.67;;;;;;;;;;781203;178;641362;-65
2022/03/14 07:34:21;;;;;;;14.70;10.10;;;;;;;;;;780556;178;686926;-65
2022/03/14 07:36:47;;;;;;;16.80;8.30;;;;;;;;;;782128;177;632399;-66
2022/03/14 07:39:13;;;;;;;14.10;9.20;;;;;;;;;;778075;179;922139;-66
2022/03/14 07:41:38;;;;;;;11.83;8.00;;;;;;;;;;782554;179;1021625;-65
2022/03/14 07:44:05;;;;;;;19.83;9.70;;;;;;;;;;778250;179;918943;-66
2022/03/14 07:46:32;;;;;;;13.93;8.37;;;;;;;;;;778051;179;918967;-64
2022/03/14 07:48:56;;;;;;;16.92;9.50;;;;;;;;;;781067;177;918417;-65
2022/03/14 07:51:22;;;;;;;13.60;8.23;;;;;;;;;;772550;179;919640;-64
2022/03/14 07:53:48;;;;;;;15.00;9.13;;;;;;;;;;777210;179;919110;-65
2022/03/14 07:56:16;;;;;;;16.30;9.13;;;;;;;;;;777209;177;919408;-65
2022/03/14 07:58:41;;;;;;;17.10;9.17;;;;;;;;;;776554;179;918720;-66
2022/03/14 08:01:06;;;;;;;12.40;8.90;;;;;;;;;;776083;177;919780;-69
2022/03/14 08:03:32;;;;;;;16.80;10.07;;;;;;;;;;778485;177;914264;-66
2022/03/14 08:06:00;;;;;;;14.93;9.23;;;;;;;;;;784719;179;916407;-67
2022/03/14 08:08:24;;;;;;;14.30;9.63;;;;;;;;;;779043;179;915593;-66
2022/03/14 08:10:49;;;;;;;13.85;8.55;;;;;;;;;;772661;179;915788;-67
2022/03/14 08:13:15;;;;;;;14.40;9.77;;;;;;;;;;777563;177;912577;-68
2022/03/14 08:15:41;;;;;;;15.80;9.23;;;;;;;;;;767055;178;911842;-67
2022/03/14 08:18:07;;;;;;;13.53;8.37;;;;;;;;;;765185;182;920186;-68
2022/03/14 08:20:33;;;;;;;13.65;8.52;;;;;;;;;;778055;180;958577;-66
2022/03/14 08:23:00;;;;;;;21.53;10.30;;;;;;;;;;768629;181;1024469;-67
2022/03/14 08:25:25;;;;;;;12.10;8.73;;;;;;;;;;762391;181;915181;-67
2022/03/14 08:27:51;;;;;;;14.90;10.10;;;;;;;;;;764701;179;912831;-67
2022/03/14 08:30:16;;;;;;;18.53;9.27;;;;;;;;;;774131;180;916952;-67
2022/03/14 08:32:42;;;;;;;13.07;9.07;;;;;;;;;;775108;176;917811;-66
2022/03/14 08:35:09;;;;;;;14.20;8.68;;;;;;;;;;775402;177;920838;-67
2022/03/14 08:37:35;;;;;;;15.30;7.73;;;;;;;;;;786193;178;915775;-66
2022/03/14 08:40:00;;;;;;;14.97;8.13;;;;;;;;;;774002;179;916789;-67
2022/03/14 08:42:26;;;;;;;15.43;7.82;;;;;;;;;;773860;178;922480;-68
2022/03/14 08:44:52;;;;;;;14.63;8.70;;;;;;;;;;782750;179;918409;-67
2022/03/14 08:47:18;;;;;;;11.07;6.95;;;;;;;;;;779154;177;917994;-67
2022/03/14 08:49:44;;;;;;;13.63;8.77;;;;;;;;;;777050;177;917375;-67
2022/03/14 08:52:10;;;;;;;14.60;8.00;;;;;;;;;;775987;179;1059605;-68
2022/03/14 08:54:35;;;;;;;12.63;7.80;;;;;;;;;;779786;179;919292;-68
2022/03/14 08:57:01;;;;;;;13.70;9.17;;;;;;;;;;776425;178;919487;-67
2022/03/14 08:59:27;;;;;;;11.63;8.33;;;;;;;;;;770588;180;988863;-68
2022/03/14 09:01:53;;;;;;;14.63;9.30;;;;;;;;;;770210;183;919080;-67
2022/03/14 09:04:19;;;;;;;12.20;9.20;;;;;;;;;;766706;179;919059;-67
2022/03/14 09:06:45;;;;;;;15.20;8.10;;;;;;;;;;772270;181;922795;-68
2022/03/14 09:09:12;;;;;;;11.53;7.97;;;;;;;;;;777356;180;919368;-68
2022/03/14 09:11:38;;;;;;;12.90;7.93;;;;;;;;;;772773;178;919516;-68
2022/03/14 09:14:02;;;;;;;13.47;8.77;;;;;;;;;;771206;180;919372;-68
2022/03/14 09:16:29;;;;;;;12.67;8.10;;;;;;;;;;772189;180;919009;-68
2022/03/14 09:18:54;;;;;;;14.60;10.67;;;;;;;;;;761292;182;919165;-68
2022/03/14 09:21:20;;;;;;;14.33;7.80;;;;;;;;;;778367;180;919111;-69
2022/03/14 09:23:46;;;;;;;14.37;9.40;;;;;;;;;;777226;180;919481;-68
2022/03/14 09:26:12;;;;;;;12.00;8.63;;;;;;;;;;781466;178;920586;-69
2022/03/14 09:28:39;;;;;;;14.90;7.97;;;;;;;;;;775484;180;943588;-68
2022/03/14 09:31:03;;;;;;;15.20;10.07;;;;;;;;;;775789;180;919549;-68
2022/03/14 09:33:29;;;;;;;12.30;9.00;;;;;;;;;;781330;180;928498;-67
2022/03/14 09:35:55;;;;;;;12.30;8.73;;;;;;;;;;772742;178;1021715;-68
2022/03/14 09:38:21;;;;;;;16.93;9.07;;;;;;;;;;774772;180;919606;-70
2022/03/14 09:40:47;;;;;;;14.75;8.38;;;;;;;;;;774581;179;917989;-67
2022/03/14 09:43:15;;;;;;;17.53;10.07;;;;;;;;;;773941;178;920176;-69
2022/03/14 09:45:40;;;;;;;14.67;8.80;;;;;;;;;;778165;179;922550;-68
2022/03/14 09:48:06;;;;;;;13.23;8.53;;;;;;;;;;777314;179;919162;-69
2022/03/14 09:50:32;;;;;;;13.33;8.93;;;;;;;;;;776664;179;918535;-68
2022/03/14 09:52:58;;;;;;;15.43;8.90;;;;;;;;;;773189;179;918262;-69
2022/03/14 09:55:24;;;;;;;11.27;9.73;;;;;;;;;;773387;180;919059;-68
2022/03/14 09:57:51;;;;;;;14.07;9.10;;;;;;;;;;775606;181;919240;-70
2022/03/14 10:00:18;;;;;;;14.60;10.00;;;;;;;;;;775276;180;919742;-69
2022/03/14 10:02:43;;;;;;;12.98;8.30;;;;;;;;;;776944;180;919354;-69
2022/03/14 10:05:09;;;;;;;13.37;8.93;;;;;;;;;;770992;179;1300305;-67
2022/03/14 10:07:35;;;;;;;14.23;8.83;;;;;;;;;;763094;178;919120;-68
2022/03/14 10:10:00;;;;;;;14.40;8.30;;;;;;;;;;741522;184;1021647;-68
2022/03/14 10:12:26;;;;;;;13.73;8.33;;;;;;;;;;740373;189;919147;-66
2022/03/14 10:14:52;;;;;;;12.43;8.67;;;;;;;;;;750789;186;919596;-66
2022/03/14 10:17:18;;;;;;;12.80;8.10;;;;;;;;;;754224;185;919209;-68
2022/03/14 10:19:44;;;;;;;12.87;8.50;;;;;;;;;;771355;180;919247;-69
2022/03/14 10:22:14;;;;;;;12.27;9.43;;;;;;;;;;780219;180;919756;-68
2022/03/14 10:24:39;;;;;;;14.63;10.17;;;;;;;;;;777070;180;919414;-68
2022/03/14 10:27:05;;;;;;;13.37;7.97;;;;;;;;;;778202;179;919848;-68
2022/03/14 10:29:31;;;;;;;15.57;9.93;;;;;;;;;;773675;178;919897;-68
2022/03/14 10:31:57;;;;;;;15.87;7.43;;;;;;;;;;777210;180;919648;-68
2022/03/14 10:34:23;;;;;;;16.33;9.07;;;;;;;;;;771730;181;919200;-69
2022/03/14 10:36:49;;;;;;;12.40;8.73;;;;;;;;;;774604;180;919379;-68
2022/03/14 10:39:16;;;;;;;15.00;7.50;;;;;;;;;;775783;180;1020912;-68
2022/03/14 10:41:42;;;;;;;19.00;8.43;;;;;;;;;;774467;179;919169;-68
2022/03/14 10:44:08;;;;;;;10.43;7.53;;;;;;;;;;776500;179;962007;-68
2022/03/14 10:46:34;;;;;;;13.00;7.23;;;;;;;;;;771567;180;917888;-68
2022/03/14 10:49:00;;;;;;;10.80;6.00;;;;;;;;;;766409;180;928758;-69
2022/03/14 10:51:26;;;;;;;10.23;7.70;;;;;;;;;;764975;179;915937;-68
2022/03/14 10:53:51;;;;;;;12.60;7.90;;;;;;;;;;766132;180;915387;-68
2022/03/14 10:56:17;;;;;;;12.33;7.40;;;;;;;;;;780744;179;915221;-67
2022/03/14 10:58:43;;;;;;;14.03;8.80;;;;;;;;;;773160;179;918757;-69
2022/03/14 11:01:09;;;;;;;11.57;7.20;;;;;;;;;;769504;180;919623;-70
2022/03/14 11:03:35;;;;;;;10.23;7.20;;;;;;;;;;771561;182;915770;-69
2022/03/14 11:06:01;;;;;;;13.77;7.73;;;;;;;;;;770536;180;917484;-68
2022/03/14 11:08:31;;;;;;;13.80;7.50;;;;;;;;;;777604;180;920267;-69
2022/03/14 11:10:57;;;;;;;12.50;7.28;;;;;;;;;;779237;179;1017173;-68
2022/03/14 11:13:23;;;;;;;10.68;7.30;;;;;;;;;;774298;181;938188;-69
2022/03/14 11:15:49;;;;;;;11.73;8.03;;;;;;;;;;775233;179;920616;-69
2022/03/14 11:18:15;;;;;;;17.87;8.50;;;;;;;;;;778945;179;916204;-67
2022/03/14 11:20:41;;;;;;;14.20;9.40;;;;;;;;;;785881;179;914239;-70
2022/03/14 11:23:06;;;;;;;13.50;7.80;;;;;;;;;;777545;177;919798;-68
2022/03/14 11:25:32;;;;;;;13.80;8.37;;;;;;;;;;777650;179;1022000;-69
2022/03/14 11:27:58;;;;;;;13.52;7.53;;;;;;;;;;782921;179;920262;-70
2022/03/14 11:30:24;;;;;;;11.50;8.33;;;;;;;;;;776675;179;920947;-69
2022/03/14 11:32:50;;;;;;;17.63;7.80;;;;;;;;;;770075;182;920334;-69
2022/03/14 11:35:16;;;;;;;13.30;8.47;;;;;;;;;;777025;179;918646;-69
2022/03/14 11:37:42;;;;;;;11.00;7.37;;;;;;;;;;775248;179;920057;-70
2022/03/14 11:40:08;;;;;;;12.93;7.93;;;;;;;;;;777519;178;919126;-69
2022/03/14 11:42:34;;;;;;;12.03;9.87;;;;;;;;;;776884;179;919172;-71
2022/03/14 11:45:02;;;;;;;14.40;7.40;;;;;;;;;;780759;180;936077;-69
2022/03/14 11:47:25;;;;;;;10.53;7.03;;;;;;;;;;772554;180;919871;-69
2022/03/14 11:49:51;;;;;;;10.90;7.90;;;;;;;;;;773749;179;918366;-70
2022/03/14 11:52:19;;;;;;;13.20;8.03;;;;;;;;;;779915;180;918823;-68
2022/03/14 11:54:45;;;;;;;7.40;5.87;;;;;;;;;;775813;179;919641;-68
2022/03/14 11:57:11;;;;;;;11.20;7.90;;;;;;;;;;771588;180;1019359;-71
2022/03/14 11:59:36;;;;;;;13.93;8.30;;;;;;;;;;781992;180;919783;-69
2022/03/14 12:02:05;;;;;;;15.20;8.43;;;;;;;;;;776235;179;919178;-69
2022/03/14 12:04:28;;;;;;;10.37;6.90;;;;;;;;;;772898;179;1124467;-71
2022/03/14 12:07:09;;;;;;;12.90;8.23;;;;;;;;;;778136;178;919419;-70
2022/03/14 12:09:45;;;;;;;9.97;6.47;;;;;;;;;;779951;179;919178;-70
2022/03/14 12:12:24;;;;;;;11.40;7.60;;;;;;;;;;779833;179;917793;-68
2022/03/14 12:14:57;;;;;;;11.50;6.53;;;;;;;;;;782117;179;918983;-70
2022/03/14 12:17:24;;;;;;;10.80;6.90;;;;;;;;;;777598;180;918822;-68
2022/03/14 12:19:50;;;;;;;12.50;8.47;;;;;;;;;;776242;180;919272;-68
2022/03/14 12:22:22;;;;;;;8.70;6.70;;;;;;;;;;768749;180;920867;-70
2022/03/14 12:24:48;;;;;;;20.77;8.33;;;;;;;;;;784683;179;918324;-68
2022/03/14 12:27:15;;;;;;;10.20;7.03;;;;;;;;;;777145;179;1254077;-67
2022/03/14 12:29:41;;;;;;;19.00;8.73;;;;;;;;;;774433;179;971290;-69
2022/03/14 12:32:13;;;;;;;11.67;7.40;;;;;;;;;;773064;179;920999;-68
2022/03/14 12:34:38;;;;;;;16.73;9.30;;;;;;;;;;773614;180;919739;-70
2022/03/14 12:37:05;;;;;;;13.57;8.30;;;;;;;;;;777681;178;915648;-68
2022/03/14 12:39:30;;;;;;;17.30;9.13;;;;;;;;;;776635;179;926885;-69
2022/03/14 12:41:56;;;;;;;13.63;8.33;;;;;;;;;;784080;179;919133;-69
2022/03/14 12:44:22;;;;;;;13.50;8.87;;;;;;;;;;772794;180;919488;-68
2022/03/14 12:46:48;;;;;;;14.83;8.73;;;;;;;;;;774492;180;919425;-69
2022/03/14 12:49:20;;;;;;;12.13;8.50;;;;;;;;;;773042;178;919921;-69
2022/03/14 12:51:46;;;;;;;13.20;9.23;;;;;;;;;;768846;180;957197;-69
2022/03/14 12:54:12;;;;;;;12.50;7.83;;;;;;;;;;764879;183;920175;-69
2022/03/14 12:56:38;;;;;;;13.10;9.10;;;;;;;;;;763981;180;1021656;-68
2022/03/14 12:59:07;;;;;;;12.30;8.97;;;;;;;;;;777618;180;920277;-69
2022/03/14 13:01:32;;;;;;;14.07;8.90;;;;;;;;;;770455;181;919154;-69
2022/03/14 13:03:58;;;;;;;12.17;8.03;;;;;;;;;;779063;179;919484;-69
2022/03/14 13:06:27;;;;;;;22.73;10.77;;;;;;;;;;778305;179;923197;-68
2022/03/14 13:08:52;;;;;;;17.07;10.07;;;;;;;;;;776933;180;919893;-69
2022/03/14 13:11:18;;;;;;;13.57;10.20;;;;;;;;;;774541;180;869279;-71
2022/03/14 13:13:45;;;;;;;11.20;8.10;;;;;;;;;;764315;182;919249;-70
2022/03/14 13:16:12;;;;;;;10.40;8.27;;;;;;;;;;770767;181;919269;-67
2022/03/14 13:18:38;;;;;;;11.73;8.20;;;;;;;;;;777903;178;918676;-70
2022/03/14 13:21:10;;;;;;;14.80;9.67;;;;;;;;;;777848;179;919141;-69
2022/03/14 13:23:36;;;;;;;14.70;8.80;;;;;;;;;;777470;179;919819;-68
2022/03/14 13:26:03;;;;;;;14.17;9.50;;;;;;;;;;780658;178;919366;-69
2022/03/14 13:28:28;;;;;;;15.07;8.90;;;;;;;;;;771503;177;918409;-69
2022/03/14 13:30:54;;;;;;;13.07;8.80;;;;;;;;;;772036;179;1010761;-70
2022/03/14 13:33:23;;;;;;;19.10;10.33;;;;;;;;;;778154;180;919798;-68
2022/03/14 13:35:45;;;;;;;12.50;8.53;;;;;;;;;;772673;180;919889;-68
2022/03/14 13:38:11;;;;;;;16.73;8.40;;;;;;;;;;775724;179;919153;-70
2022/03/14 13:40:42;;;;;;;17.10;9.40;;;;;;;;;;782662;178;873727;-68
2022/03/14 13:43:08;;;;;;;12.13;9.13;;;;;;;;;;770975;180;919410;-69
2022/03/14 13:45:34;;;;;;;12.27;10.17;;;;;;;;;;764665;179;920401;-69
2022/03/14 13:47:59;;;;;;;12.07;8.60;;;;;;;;;;770976;180;919376;-68
2022/03/14 13:50:25;;;;;;;12.20;9.30;;;;;;;;;;778437;180;919827;-68
2022/03/14 13:52:51;;;;;;;13.33;8.63;;;;;;;;;;773005;177;919081;-69
2022/03/14 13:55:17;;;;;;;13.23;9.23;;;;;;;;;;770405;181;918556;-68
2022/03/14 13:57:43;;;;;;;11.47;7.47;;;;;;;;;;778200;180;919674;-68
2022/03/14 14:00:12;;;;;;;12.50;8.03;;;;;;;;;;769393;182;919632;-68
2022/03/14 14:02:38;;;;;;;16.30;8.10;;;;;;;;;;765380;180;919434;-68